createdAt,value
2019-05-29T00:00:56.997Z,99052.57
2019-05-29T00:03:26.420Z,99060.21
2019-05-29T00:05:55.847Z,99055.25
2019-05-29T00:08:25.292Z,99061.48
2019-05-29T00:10:54.732Z,99056.55
2019-05-29T00:13:24.168Z,99063.63
2019-05-29T00:15:53.605Z,99057.62
2019-05-29T00:18:23.044Z,99063.36
2019-05-29T00:20:52.462Z,99068.00
2019-05-29T00:23:21.914Z,99066.86
2019-05-29T00:25:51.345Z,99065.98
2019-05-29T00:28:20.775Z,99071.72
2019-05-29T00:30:50.317Z,99076.41
2019-05-29T00:33:19.741Z,99080.48
2019-05-29T00:35:49.180Z,99085.14
2019-05-29T00:38:18.615Z,99087.31
2019-05-29T00:40:48.046Z,99093.88
2019-05-29T00:43:17.660Z,99094.19
2019-05-29T00:45:47.113Z,99085.99
2019-05-29T00:48:16.535Z,99087.36
2019-05-29T00:50:46.026Z,99092.55
2019-05-29T00:53:16.361Z,99101.27
2019-05-29T00:55:45.884Z,99112.42
2019-05-29T00:58:15.339Z,99111.56
2019-05-29T01:00:44.773Z,99113.16
2019-05-29T01:03:14.204Z,99121.33
2019-05-29T01:05:43.657Z,99128.67
2019-05-29T01:08:14.406Z,99129.45
2019-05-29T01:10:43.978Z,99126.98
2019-05-29T01:13:13.419Z,99130.19
2019-05-29T01:15:42.868Z,99129.05
2019-05-29T01:18:12.298Z,99128.19
2019-05-29T01:20:41.735Z,99135.84
2019-05-29T01:23:12.120Z,99133.02
2019-05-29T01:25:41.616Z,99132.16
2019-05-29T01:28:11.036Z,99135.91
2019-05-29T01:30:40.473Z,99140.00
2019-05-29T01:33:09.989Z,99139.36
2019-05-29T01:35:39.420Z,99146.44
2019-05-29T01:38:08.946Z,99157.58
2019-05-29T01:40:38.518Z,99155.37
2019-05-29T01:43:08.066Z,99159.36
2019-05-29T01:45:37.631Z,99161.27
2019-05-29T01:48:07.240Z,99165.89
2019-05-29T01:50:36.992Z,99174.66
2019-05-29T01:53:06.633Z,99164.81
2019-05-29T01:55:36.271Z,99169.16
2019-05-29T01:58:05.702Z,99170.23
2019-05-29T02:00:35.146Z,99174.58
2019-05-29T02:03:04.573Z,99172.30
2019-05-29T02:05:34.009Z,99183.52
2019-05-29T02:08:03.417Z,99179.13
2019-05-29T02:10:32.986Z,99183.14
2019-05-29T02:13:02.472Z,99192.16
2019-05-29T02:15:33.956Z,99197.31
2019-05-29T02:18:03.321Z,99202.48
2019-05-29T02:20:32.928Z,99202.69
2019-05-29T02:23:02.378Z,99200.48
2019-05-29T02:25:31.803Z,99200.94
2019-05-29T02:28:04.146Z,99210.19
2019-05-29T02:30:33.682Z,99211.43
2019-05-29T02:33:03.258Z,99204.03
2019-05-29T02:35:32.798Z,99205.40
2019-05-29T02:38:02.311Z,99209.23
2019-05-29T02:40:31.739Z,99200.22
2019-05-29T02:43:01.254Z,99207.28
2019-05-29T02:45:52.078Z,99207.23
2019-05-29T02:48:02.059Z,99204.22
2019-05-29T02:50:31.466Z,99208.13
2019-05-29T02:53:01.009Z,99207.28
2019-05-29T02:55:31.013Z,99203.69
2019-05-29T02:58:00.811Z,99210.30
2019-05-29T03:00:52.972Z,99210.39
2019-05-29T03:03:23.958Z,99212.63
2019-05-29T03:05:54.684Z,99215.94
2019-05-29T03:08:24.781Z,99216.77
2019-05-29T03:10:56.225Z,99222.80
2019-05-29T03:13:27.440Z,99220.08
2019-05-29T03:16:09.909Z,99226.69
2019-05-29T03:18:30.017Z,99229.55
2019-05-29T03:20:59.833Z,99228.29
2019-05-29T03:23:30.969Z,99230.31
2019-05-29T03:26:01.120Z,99233.70
2019-05-29T03:28:32.450Z,99233.91
2019-05-29T03:31:02.130Z,99237.04
2019-05-29T03:33:39.316Z,99238.87
2019-05-29T03:36:02.942Z,99242.53
2019-05-29T03:38:33.215Z,99241.08
2019-05-29T03:41:03.718Z,99253.02
2019-05-29T03:43:35.774Z,99253.16
2019-05-29T03:46:04.583Z,99249.98
2019-05-29T03:48:34.528Z,99243.76
2019-05-29T03:51:04.068Z,99249.66
2019-05-29T03:53:34.288Z,99249.52
2019-05-29T03:56:04.859Z,99257.30
2019-05-29T03:58:35.153Z,99256.53
2019-05-29T04:01:05.408Z,99254.41
2019-05-29T04:03:35.720Z,99260.98
2019-05-29T04:06:06.563Z,99258.06
2019-05-29T04:08:38.251Z,99258.33
2019-05-29T04:11:07.534Z,99260.71
2019-05-29T04:13:38.950Z,99266.03
2019-05-29T04:16:08.193Z,99263.92
2019-05-29T04:18:38.197Z,99270.77
2019-05-29T04:21:07.808Z,99273.52
2019-05-29T04:23:38.312Z,99276.25
2019-05-29T04:26:07.885Z,99278.61
2019-05-29T04:28:39.000Z,99281.88
2019-05-29T04:31:08.661Z,99278.61
2019-05-29T04:33:38.898Z,99283.27
2019-05-29T04:36:08.445Z,99290.95
2019-05-29T04:38:40.204Z,99294.38
2019-05-29T04:41:09.130Z,99294.38
2019-05-29T04:43:39.872Z,99294.68
2019-05-29T04:46:09.633Z,99306.24
2019-05-29T04:48:40.379Z,99304.77
2019-05-29T04:51:10.081Z,99305.91
2019-05-29T04:53:40.023Z,99308.73
2019-05-29T04:56:09.713Z,99305.17
2019-05-29T04:58:39.309Z,99295.70
2019-05-29T05:01:08.950Z,99308.95
2019-05-29T05:03:39.419Z,99305.67
2019-05-29T05:06:09.094Z,99304.95
2019-05-29T05:08:39.670Z,99314.02
2019-05-29T05:11:10.147Z,99313.85
2019-05-29T05:13:39.818Z,99311.17
2019-05-29T05:16:09.392Z,99311.62
2019-05-29T05:18:40.051Z,99307.67
2019-05-29T05:21:09.894Z,99308.22
2019-05-29T05:23:40.585Z,99308.24
2019-05-29T05:26:10.227Z,99288.42
2019-05-29T05:28:43.327Z,99309.69
2019-05-29T05:31:11.140Z,99303.44
2019-05-29T05:33:41.050Z,99308.87
2019-05-29T05:36:10.648Z,99305.02
2019-05-29T05:38:41.026Z,99307.42
2019-05-29T05:41:10.782Z,99316.92
2019-05-29T05:43:41.373Z,99309.05
2019-05-29T05:46:11.041Z,99315.37
2019-05-29T05:48:41.566Z,99304.62
2019-05-29T05:51:11.347Z,99311.27
2019-05-29T05:53:41.726Z,99317.55
2019-05-29T05:56:11.484Z,99310.28
2019-05-29T05:58:42.285Z,99310.48
2019-05-29T06:01:11.932Z,99317.20
2019-05-29T06:03:42.413Z,99318.36
2019-05-29T06:06:12.530Z,99312.98
2019-05-29T06:08:42.455Z,99316.66
2019-05-29T06:11:12.222Z,99326.06
2019-05-29T06:13:42.731Z,99331.52
2019-05-29T06:16:12.577Z,99323.20
2019-05-29T06:18:42.974Z,99329.92
2019-05-29T06:21:12.931Z,99325.50
2019-05-29T06:23:43.431Z,99328.47
2019-05-29T06:26:13.582Z,99327.23
2019-05-29T06:28:43.661Z,99326.41
2019-05-29T06:31:13.214Z,99322.56
2019-05-29T06:33:43.984Z,99319.06
2019-05-29T06:36:13.900Z,99318.41
2019-05-29T06:38:44.273Z,99313.81
2019-05-29T06:41:13.990Z,99312.97
2019-05-29T06:43:44.408Z,99305.56
2019-05-29T06:46:14.263Z,99309.43
2019-05-29T06:48:56.425Z,99313.28
2019-05-29T06:51:15.317Z,99309.11
2019-05-29T06:53:44.951Z,99300.86
2019-05-29T06:56:15.268Z,99310.77
2019-05-29T06:58:45.489Z,99311.44
2019-05-29T07:01:15.014Z,99309.71
2019-05-29T07:03:44.433Z,99306.51
2019-05-29T07:06:14.018Z,99318.23
2019-05-29T07:08:47.890Z,99322.02
2019-05-29T07:11:14.797Z,99323.88
2019-05-29T07:13:47.521Z,99323.83
2019-05-29T07:16:15.403Z,99316.51
2019-05-29T07:19:20.597Z,99324.25
2019-05-29T07:21:16.029Z,99321.38
2019-05-29T07:23:47.913Z,99320.53
2019-05-29T07:26:16.911Z,99318.58
2019-05-29T07:29:03.497Z,99315.61
2019-05-29T07:31:17.669Z,99317.93
2019-05-29T07:33:47.490Z,99315.14
2019-05-29T07:36:16.992Z,99314.67
2019-05-29T07:39:02.010Z,99313.95
2019-05-29T07:41:17.850Z,99316.78
2019-05-29T07:43:48.112Z,99319.27
2019-05-29T07:46:17.665Z,99318.66
2019-05-29T07:48:48.565Z,99312.48
2019-05-29T07:51:18.441Z,99315.91
2019-05-29T07:53:48.817Z,99323.52
2019-05-29T07:56:22.673Z,99317.01
2019-05-29T07:59:01.600Z,99322.65
2019-05-29T08:01:20.997Z,99319.22
2019-05-29T08:03:50.667Z,99319.22
2019-05-29T08:06:20.109Z,99324.62
2019-05-29T08:08:49.686Z,99322.49
2019-05-29T08:11:19.111Z,99323.66
2019-05-29T08:13:49.876Z,99327.14
2019-05-29T08:16:19.720Z,99326.78
2019-05-29T08:18:52.730Z,99325.75
2019-05-29T08:21:20.494Z,99330.51
2019-05-29T08:23:50.820Z,99330.96
2019-05-29T08:26:20.570Z,99326.55
2019-05-29T08:28:51.168Z,99327.01
2019-05-29T08:31:20.879Z,99325.06
2019-05-29T08:33:51.287Z,99327.44
2019-05-29T08:36:21.134Z,99331.27
2019-05-29T08:38:51.734Z,99330.17
2019-05-29T08:41:21.424Z,99333.08
2019-05-29T08:43:51.083Z,99332.58
2019-05-29T08:46:20.560Z,99327.28
2019-05-29T08:48:50.250Z,99326.45
2019-05-29T08:51:19.799Z,99329.65
2019-05-29T08:53:51.982Z,99322.64
2019-05-29T08:56:20.526Z,99322.64
2019-05-29T08:58:50.655Z,99329.59
2019-05-29T09:01:20.348Z,99327.96
2019-05-29T09:03:51.201Z,99337.66
2019-05-29T09:06:21.414Z,99334.11
2019-05-29T09:08:54.000Z,99337.09
2019-05-29T09:11:22.333Z,99330.77
2019-05-29T09:13:51.910Z,99335.98
2019-05-29T09:16:21.952Z,99339.27
2019-05-29T09:18:51.476Z,99339.27
2019-05-29T09:21:20.899Z,99337.17
2019-05-29T09:23:50.335Z,99332.36
2019-05-29T09:26:23.894Z,99331.77
2019-05-29T09:28:51.226Z,99331.77
2019-05-29T09:31:22.171Z,99329.33
2019-05-29T09:33:51.718Z,99328.42
2019-05-29T09:36:22.621Z,99329.48
2019-05-29T09:38:52.497Z,99326.94
2019-05-29T09:41:23.579Z,99321.69
2019-05-29T09:43:59.186Z,99320.30
2019-05-29T09:46:25.785Z,99325.30
2019-05-29T09:48:55.264Z,99322.39
2019-05-29T09:51:24.738Z,99320.55
2019-05-29T09:53:55.720Z,99319.41
2019-05-29T09:56:25.662Z,99314.98
2019-05-29T09:58:56.368Z,99316.09
2019-05-29T10:01:26.381Z,99315.42
2019-05-29T10:03:57.547Z,99313.61
2019-05-29T10:06:27.194Z,99312.56
2019-05-29T10:08:57.947Z,99306.77
2019-05-29T10:11:27.750Z,99307.93
2019-05-29T10:13:58.755Z,99312.70
2019-05-29T10:16:28.833Z,99313.64
2019-05-29T10:18:59.761Z,99315.56
2019-05-29T10:21:40.182Z,99313.55
2019-05-29T10:24:01.973Z,99310.93
2019-05-29T10:26:31.767Z,99308.71
2019-05-29T10:29:08.339Z,99301.20
2019-05-29T10:31:32.762Z,99305.22
2019-05-29T10:34:02.199Z,99301.44
2019-05-29T10:36:31.648Z,99304.23
2019-05-29T10:39:01.061Z,99306.95
2019-05-29T10:41:30.532Z,99300.80
2019-05-29T10:43:59.976Z,99300.42
2019-05-29T10:46:29.409Z,99300.34
2019-05-29T10:48:58.935Z,99300.34
2019-05-29T10:51:28.543Z,99297.66
2019-05-29T10:53:59.219Z,99297.16
2019-05-29T10:56:28.808Z,99303.38
2019-05-29T10:59:00.075Z,99301.29
2019-05-29T11:01:29.853Z,99299.30
2019-05-29T11:03:59.358Z,99295.37
2019-05-29T11:06:28.936Z,99300.00
2019-05-29T11:08:58.625Z,99292.42
2019-05-29T11:11:28.196Z,99292.45
2019-05-29T11:13:57.733Z,99295.05
2019-05-29T11:16:27.160Z,99292.41
2019-05-29T11:18:57.581Z,99288.75
2019-05-29T11:21:27.331Z,99285.09
2019-05-29T11:23:58.033Z,99294.92
2019-05-29T11:26:27.783Z,99286.02
2019-05-29T11:28:58.626Z,99273.67
2019-05-29T11:31:28.366Z,99277.43
2019-05-29T11:33:59.102Z,99274.23
2019-05-29T11:36:28.800Z,99267.91
2019-05-29T11:39:03.279Z,99264.41
2019-05-29T11:41:29.628Z,99272.47
2019-05-29T11:43:59.042Z,99272.28
2019-05-29T11:46:28.554Z,99274.06
2019-05-29T11:48:59.340Z,99259.47
2019-05-29T11:51:28.961Z,99261.31
2019-05-29T11:53:59.583Z,99274.03
2019-05-29T11:56:29.148Z,99269.23
2019-05-29T11:58:59.033Z,99276.64
2019-05-29T12:01:28.672Z,99269.63
2019-05-29T12:04:21.895Z,99267.28
2019-05-29T12:06:29.564Z,99260.58
2019-05-29T12:08:59.858Z,99258.59
2019-05-29T12:11:29.332Z,99258.80
2019-05-29T12:14:00.522Z,99251.86
2019-05-29T12:16:30.147Z,99249.44
2019-05-29T12:18:59.898Z,99246.55
2019-05-29T12:21:29.571Z,99253.14
2019-05-29T12:24:00.242Z,99249.45
2019-05-29T12:26:29.814Z,99248.91
2019-05-29T12:29:07.135Z,99242.98
2019-05-29T12:31:30.477Z,99254.37
2019-05-29T12:34:12.765Z,99243.68
2019-05-29T12:36:31.465Z,99237.43
2019-05-29T12:39:02.168Z,99233.50
2019-05-29T12:41:32.272Z,99240.00
2019-05-29T12:44:01.886Z,99232.02
2019-05-29T12:46:31.514Z,99237.08
2019-05-29T12:49:01.688Z,99232.97
2019-05-29T12:51:31.526Z,99228.64
2019-05-29T12:54:02.313Z,99232.30
2019-05-29T12:56:31.987Z,99231.31
2019-05-29T12:59:02.668Z,99221.36
2019-05-29T13:01:32.260Z,99220.47
2019-05-29T13:04:02.428Z,99216.90
2019-05-29T13:06:32.082Z,99222.32
2019-05-29T13:09:02.650Z,99215.45
2019-05-29T13:11:32.328Z,99216.71
2019-05-29T13:14:02.703Z,99214.31
2019-05-29T13:16:32.397Z,99212.99
2019-05-29T13:19:03.283Z,99219.19
2019-05-29T13:21:33.117Z,99218.61
2019-05-29T13:24:04.023Z,99220.14
2019-05-29T13:26:33.825Z,99214.23
2019-05-29T13:29:03.936Z,99220.88
2019-05-29T13:31:33.862Z,99222.73
2019-05-29T13:34:04.418Z,99217.91
2019-05-29T13:36:34.110Z,99215.22
2019-05-29T13:39:04.850Z,99206.72
2019-05-29T13:41:34.417Z,99205.81
2019-05-29T13:44:04.807Z,99203.91
2019-05-29T13:46:34.483Z,99206.73
2019-05-29T13:49:05.025Z,99203.25
2019-05-29T13:51:34.584Z,99213.39
2019-05-29T13:54:13.362Z,99219.01
2019-05-29T13:56:35.297Z,99209.52
2019-05-29T13:59:06.573Z,99210.82
2019-05-29T14:01:36.248Z,99212.29
2019-05-29T14:04:06.835Z,99209.61
2019-05-29T14:06:36.297Z,99211.13
2019-05-29T14:09:09.526Z,99212.20
2019-05-29T14:11:39.206Z,99209.44
2019-05-29T14:14:11.216Z,99202.91
2019-05-29T14:16:39.941Z,99197.25
2019-05-29T14:19:09.506Z,99188.00
2019-05-29T14:21:39.053Z,99191.39
2019-05-29T14:24:26.769Z,99191.39
2019-05-29T14:26:39.708Z,99187.06
2019-05-29T14:29:10.070Z,99185.00
2019-05-29T14:31:39.584Z,99186.64
2019-05-29T14:34:09.617Z,99189.17
2019-05-29T14:36:39.124Z,99180.52
2019-05-29T14:39:09.992Z,99185.26
2019-05-29T14:41:39.479Z,99179.61
2019-05-29T14:44:10.013Z,99185.97
2019-05-29T14:46:39.804Z,99177.41
2019-05-29T14:49:10.759Z,99186.04
2019-05-29T14:51:40.411Z,99176.00
2019-05-29T14:54:11.070Z,99179.72
2019-05-29T14:56:40.580Z,99171.09
2019-05-29T14:59:11.094Z,99177.68
2019-05-29T15:01:40.733Z,99181.17
2019-05-29T15:04:12.653Z,99184.31
2019-05-29T15:06:41.380Z,99179.24
2019-05-29T15:09:11.763Z,99180.22
2019-05-29T15:11:41.379Z,99181.11
2019-05-29T15:14:10.795Z,99182.97
2019-05-29T15:16:40.222Z,99176.84
2019-05-29T15:19:11.005Z,99184.84
2019-05-29T15:21:40.689Z,99187.52
2019-05-29T15:24:11.524Z,99184.11
2019-05-29T15:26:41.072Z,99181.34
2019-05-29T15:29:13.274Z,99181.03
2019-05-29T15:31:41.741Z,99187.23
2019-05-29T15:34:12.283Z,99182.55
2019-05-29T15:36:41.860Z,99181.44
2019-05-29T15:39:11.274Z,99187.92
2019-05-29T15:41:40.696Z,99187.42
2019-05-29T15:44:10.861Z,99187.48
2019-05-29T15:46:40.344Z,99183.55
2019-05-29T15:49:11.103Z,99184.28
2019-05-29T15:51:40.563Z,99190.16
2019-05-29T15:54:11.200Z,99193.80
2019-05-29T15:56:41.551Z,99195.84
2019-05-29T15:59:12.123Z,99198.99
2019-05-29T16:01:42.103Z,99201.65
2019-05-29T16:04:11.746Z,99203.03
2019-05-29T16:06:41.255Z,99206.67
2019-05-29T16:09:10.718Z,99207.95
2019-05-29T16:11:40.119Z,99202.92
2019-05-29T16:14:10.669Z,99205.59
2019-05-29T16:16:40.166Z,99203.54
2019-05-29T16:19:10.131Z,99203.67
2019-05-29T16:21:39.605Z,99202.98
2019-05-29T16:24:09.057Z,99209.27
2019-05-29T16:26:38.475Z,99205.92
2019-05-29T16:29:07.961Z,99215.27
2019-05-29T16:31:37.420Z,99210.00
2019-05-29T16:34:06.927Z,99216.88
2019-05-29T16:36:36.373Z,99217.94
2019-05-29T16:39:07.803Z,99224.54
2019-05-29T16:41:37.425Z,99217.35
2019-05-29T16:44:06.950Z,99226.19
2019-05-29T16:46:36.666Z,99222.54
2019-05-29T16:49:06.107Z,99225.16
2019-05-29T16:51:35.536Z,99228.73
2019-05-29T16:54:04.975Z,99230.72
2019-05-29T16:56:34.412Z,99231.21
2019-05-29T16:59:03.955Z,99233.44
2019-05-29T17:01:33.397Z,99238.05
2019-05-29T17:04:02.816Z,99240.36
2019-05-29T17:06:32.257Z,99239.92
2019-05-29T17:09:01.709Z,99247.98
2019-05-29T17:11:31.322Z,99248.88
2019-05-29T17:14:00.730Z,99247.05
2019-05-29T17:16:30.147Z,99250.68
2019-05-29T17:18:59.623Z,99249.62
2019-05-29T17:21:29.089Z,99253.01
2019-05-29T17:23:58.499Z,99253.34
2019-05-29T17:26:27.958Z,99253.66
2019-05-29T17:28:57.481Z,99258.41
2019-05-29T17:31:26.937Z,99254.92
2019-05-29T17:33:56.373Z,99256.89
2019-05-29T17:36:28.688Z,99255.86
2019-05-29T17:38:57.146Z,99256.19
2019-05-29T17:41:26.853Z,99254.34
2019-05-29T17:43:56.318Z,99256.27
2019-05-29T17:46:25.920Z,99258.51
2019-05-29T17:48:55.375Z,99258.80
2019-05-29T17:51:26.071Z,99258.00
2019-05-29T17:53:55.832Z,99263.06
2019-05-29T17:56:35.809Z,99252.70
2019-05-29T17:58:56.502Z,99253.37
2019-05-29T18:01:26.352Z,99258.14
2019-05-29T18:03:57.113Z,99254.31
2019-05-29T18:06:26.604Z,99257.41
2019-05-29T18:08:56.023Z,99270.91
2019-05-29T18:11:25.447Z,99269.84
2019-05-29T18:13:54.942Z,99270.17
2019-05-29T18:16:25.587Z,99273.25
2019-05-29T18:18:55.130Z,99268.08
2019-05-29T18:21:25.656Z,99274.42
2019-05-29T18:23:55.265Z,99282.98
2019-05-29T18:26:24.711Z,99289.08
2019-05-29T18:28:54.587Z,99302.83
2019-05-29T18:31:24.486Z,99303.14
2019-05-29T18:33:54.018Z,99304.53
2019-05-29T18:36:23.604Z,99311.95
2019-05-29T18:38:53.143Z,99315.00
2019-05-29T18:41:22.617Z,99313.88
2019-05-29T18:43:52.039Z,99318.86
2019-05-29T18:46:21.473Z,99318.06
2019-05-29T18:48:50.928Z,99316.99
2019-05-29T18:51:20.494Z,99316.73
2019-05-29T18:53:53.333Z,99321.70
2019-05-29T18:56:23.990Z,99320.34
2019-05-29T18:58:53.462Z,99328.88
2019-05-29T19:01:23.459Z,99331.88
2019-05-29T19:03:53.006Z,99335.98
2019-05-29T19:06:25.539Z,99340.92
2019-05-29T19:08:55.120Z,99343.13
2019-05-29T19:11:25.866Z,99346.13
2019-05-29T19:13:55.432Z,99355.45
2019-05-29T19:16:26.318Z,99361.77
2019-05-29T19:18:56.014Z,99362.86
2019-05-29T19:21:26.386Z,99369.41
2019-05-29T19:23:55.867Z,99375.19
2019-05-29T19:26:26.692Z,99368.30
2019-05-29T19:28:56.312Z,99366.93
2019-05-29T19:31:27.062Z,99371.02
2019-05-29T19:33:57.905Z,99352.92
2019-05-29T19:36:29.890Z,99352.34
2019-05-29T19:38:59.634Z,99353.42
2019-05-29T19:41:30.107Z,99354.77
2019-05-29T19:43:59.637Z,99361.08
2019-05-29T19:46:30.749Z,99363.53
2019-05-29T19:49:00.621Z,99363.82
2019-05-29T19:51:31.408Z,99362.71
2019-05-29T19:54:00.901Z,99366.82
2019-05-29T19:56:30.351Z,99367.35
2019-05-29T19:58:59.888Z,99367.89
2019-05-29T20:01:35.375Z,99362.66
2019-05-29T20:04:00.523Z,99370.88
2019-05-29T20:06:30.977Z,99373.01
2019-05-29T20:09:00.506Z,99368.91
2019-05-29T20:11:29.982Z,99367.78
2019-05-29T20:13:59.429Z,99375.45
2019-05-29T20:16:30.000Z,99382.53
2019-05-29T20:18:59.523Z,99382.80
2019-05-29T20:21:28.985Z,99393.14
2019-05-29T20:23:58.438Z,99395.30
2019-05-29T20:26:29.116Z,99399.92
2019-05-29T20:28:58.669Z,99417.13
2019-05-29T20:31:28.110Z,99414.88
2019-05-29T20:33:57.736Z,99424.47
2019-05-29T20:36:27.189Z,99438.10
2019-05-29T20:38:56.827Z,99407.83
2019-05-29T20:41:26.506Z,99451.59
2019-05-29T20:43:55.947Z,99453.52
2019-05-29T20:46:25.389Z,99451.41
2019-05-29T20:48:54.843Z,99461.09
2019-05-29T20:51:24.280Z,99461.11
2019-05-29T20:53:53.769Z,99464.18
2019-05-29T20:56:23.296Z,99459.02
2019-05-29T20:58:52.731Z,99460.42
2019-05-29T21:01:22.182Z,99467.81
2019-05-29T21:03:51.629Z,99478.23
2019-05-29T21:06:21.146Z,99482.88
2019-05-29T21:08:50.584Z,99483.72
2019-05-29T21:11:20.033Z,99488.91
2019-05-29T21:13:49.452Z,99491.10
2019-05-29T21:16:18.926Z,99501.78
2019-05-29T21:18:48.344Z,99507.26
2019-05-29T21:21:17.758Z,99511.37
2019-05-29T21:23:47.183Z,99510.83
2019-05-29T21:26:16.687Z,99509.75
2019-05-29T21:28:50.459Z,99513.28
2019-05-29T21:31:17.267Z,99512.95
2019-05-29T21:33:49.249Z,99520.66
2019-05-29T21:36:17.874Z,99519.88
2019-05-29T21:38:47.331Z,99527.80
2019-05-29T21:41:16.773Z,99541.84
2019-05-29T21:43:47.024Z,99539.39
2019-05-29T21:46:16.541Z,99542.64
2019-05-29T21:48:47.333Z,99553.03
2019-05-29T21:51:17.052Z,99552.75
2019-05-29T21:53:47.618Z,99551.08
2019-05-29T21:56:17.241Z,99557.61
2019-05-29T21:58:59.891Z,99570.94
2019-05-29T22:01:17.927Z,99575.65
2019-05-29T22:03:48.719Z,99577.10
2019-05-29T22:06:18.272Z,99577.25
2019-05-29T22:08:47.700Z,99571.91
2019-05-29T22:11:17.252Z,99577.67
2019-05-29T22:13:46.680Z,99578.55
2019-05-29T22:16:16.100Z,99578.94
2019-05-29T22:18:45.543Z,99586.22
2019-05-29T22:21:14.983Z,99585.74
2019-05-29T22:23:44.410Z,99591.39
2019-05-29T22:26:13.914Z,99596.95
2019-05-29T22:28:43.357Z,99609.48
2019-05-29T22:31:12.791Z,99601.48
2019-05-29T22:33:42.256Z,99616.14
2019-05-29T22:36:11.661Z,99617.88
2019-05-29T22:38:41.115Z,99626.47
2019-05-29T22:41:10.571Z,99627.17
2019-05-29T22:43:40.014Z,99635.56
2019-05-29T22:46:09.427Z,99643.62
2019-05-29T22:48:38.861Z,99647.12
2019-05-29T22:51:08.305Z,99650.95
2019-05-29T22:53:37.791Z,99656.30
2019-05-29T22:56:07.206Z,99658.69
2019-05-29T22:58:36.722Z,99656.55
2019-05-29T23:01:06.225Z,99660.11
2019-05-29T23:03:35.673Z,99668.73
2019-05-29T23:06:05.125Z,99671.41
2019-05-29T23:08:34.551Z,99680.64
2019-05-29T23:11:04.058Z,99672.03
2019-05-29T23:13:33.489Z,99671.84
2019-05-29T23:16:02.959Z,99680.36
2019-05-29T23:18:32.368Z,99680.87
2019-05-29T23:21:02.718Z,99685.23
2019-05-29T23:23:32.221Z,99689.60
2019-05-29T23:26:02.849Z,99697.63
2019-05-29T23:28:32.606Z,99707.48
2019-05-29T23:31:03.069Z,99711.70
2019-05-29T23:33:32.568Z,99714.27
2019-05-29T23:36:03.179Z,99715.98
2019-05-29T23:38:32.902Z,99720.15
2019-05-29T23:41:03.654Z,99714.54
2019-05-29T23:43:33.271Z,99724.42
2019-05-29T23:46:03.936Z,99722.22
2019-05-29T23:48:33.437Z,99722.22
2019-05-29T23:51:03.800Z,99720.07
2019-05-29T23:53:33.272Z,99723.15
2019-05-29T23:56:03.906Z,99714.66
2019-05-29T23:58:33.531Z,99721.25
